createdAt,value
2022-10-10T00:01:08.719Z,19.50
2022-10-10T00:03:44.964Z,18.20
2022-10-10T00:06:20.701Z,18.70
2022-10-10T00:08:55.137Z,19.10
2022-10-10T00:11:28.723Z,19.70
2022-10-10T00:14:02.238Z,19.10
2022-10-10T00:16:36.334Z,19.30
2022-10-10T00:19:09.956Z,19.00
2022-10-10T00:21:43.642Z,17.70
2022-10-10T00:24:17.278Z,18.90
2022-10-10T00:26:50.743Z,20.20
2022-10-10T00:29:24.577Z,20.10
2022-10-10T00:31:57.906Z,16.70
2022-10-10T00:34:31.678Z,17.40
2022-10-10T00:37:05.172Z,17.70
2022-10-10T00:39:38.482Z,16.60
2022-10-10T00:42:15.476Z,16.60
2022-10-10T00:45:04.320Z,16.20
2022-10-10T00:47:37.795Z,16.20
2022-10-10T00:50:12.522Z,17.30
2022-10-10T00:52:46.316Z,16.30
2022-10-10T00:55:20.661Z,16.30
2022-10-10T00:57:54.489Z,17.30
2022-10-10T01:00:28.172Z,18.10
2022-10-10T01:03:01.767Z,18.80
2022-10-10T01:05:35.976Z,17.00
2022-10-10T01:08:10.304Z,17.50
2022-10-10T01:10:56.048Z,16.70
2022-10-10T01:13:36.974Z,17.30
2022-10-10T01:16:19.019Z,17.70
2022-10-10T01:19:00.605Z,18.20
2022-10-10T01:21:40.574Z,17.80
2022-10-10T01:24:39.623Z,18.60
2022-10-10T01:27:25.463Z,17.40
2022-10-10T01:30:06.758Z,17.10
2022-10-10T01:32:44.600Z,15.40
2022-10-10T01:35:34.448Z,16.60
2022-10-10T01:38:23.105Z,15.60
2022-10-10T01:40:59.365Z,16.20
2022-10-10T01:43:34.257Z,16.80
2022-10-10T01:46:15.254Z,17.50
2022-10-10T01:48:51.450Z,18.40
2022-10-10T01:51:39.946Z,19.20
2022-10-10T01:57:01.850Z,18.40
2022-10-10T01:59:48.702Z,15.70
2022-10-10T02:02:31.049Z,17.00
2022-10-10T02:05:10.774Z,16.60
2022-10-10T02:07:51.020Z,16.80
2022-10-10T02:10:30.043Z,18.10
2022-10-10T02:13:05.937Z,16.40
2022-10-10T02:15:44.617Z,17.40
2022-10-10T02:18:21.799Z,16.50
2022-10-10T02:20:57.403Z,18.10
2022-10-10T02:23:31.774Z,17.70
2022-10-10T02:26:06.460Z,17.20
2022-10-10T02:28:44.599Z,15.40
2022-10-10T02:31:22.727Z,15.70
2022-10-10T02:34:01.179Z,16.50
2022-10-10T02:36:35.237Z,16.70
2022-10-10T02:39:11.602Z,16.90
2022-10-10T02:41:47.371Z,15.80
2022-10-10T02:44:22.023Z,15.60
2022-10-10T02:46:55.459Z,17.20
2022-10-10T02:49:31.375Z,15.80
2022-10-10T02:52:05.331Z,16.00
2022-10-10T02:54:38.706Z,15.80
2022-10-10T02:57:12.781Z,15.60
2022-10-10T02:59:46.451Z,15.80
2022-10-10T03:02:20.212Z,15.60
2022-10-10T03:04:53.628Z,16.10
2022-10-10T03:07:27.071Z,16.10
2022-10-10T03:10:00.577Z,15.80
2022-10-10T03:12:34.071Z,15.50
2022-10-10T03:15:11.731Z,16.50
2022-10-10T03:17:45.856Z,15.30
2022-10-10T03:20:19.253Z,14.60
2022-10-10T03:22:53.329Z,16.40
2022-10-10T03:25:27.488Z,15.80
2022-10-10T03:28:00.843Z,15.70
2022-10-10T03:30:34.591Z,14.70
2022-10-10T03:33:08.868Z,15.20
2022-10-10T03:35:42.139Z,16.10
2022-10-10T03:38:16.489Z,15.60
2022-10-10T03:40:50.364Z,15.00
2022-10-10T03:43:23.701Z,14.60
2022-10-10T03:45:57.306Z,14.20
2022-10-10T03:48:30.805Z,13.80
2022-10-10T03:51:04.223Z,14.60
2022-10-10T03:53:37.510Z,13.80
2022-10-10T03:56:11.448Z,13.40
2022-10-10T03:58:44.828Z,13.30
2022-10-10T04:01:18.080Z,13.60
2022-10-10T04:03:52.377Z,12.50
2022-10-10T04:06:25.859Z,11.80
2022-10-10T04:08:59.516Z,12.50
2022-10-10T04:11:32.725Z,12.40
2022-10-10T04:14:06.236Z,11.80
2022-10-10T04:16:39.720Z,13.50
2022-10-10T04:19:13.273Z,11.80
2022-10-10T04:21:46.813Z,13.00
2022-10-10T04:24:20.068Z,12.40
2022-10-10T04:26:53.687Z,12.60
2022-10-10T04:29:27.113Z,12.20
2022-10-10T04:32:00.879Z,11.60
2022-10-10T04:34:34.105Z,12.30
2022-10-10T04:37:07.533Z,12.40
2022-10-10T04:39:41.292Z,11.80
2022-10-10T04:42:15.043Z,13.00
2022-10-10T04:44:48.343Z,13.50
2022-10-10T04:47:21.773Z,11.80
2022-10-10T04:49:54.986Z,11.70
2022-10-10T04:52:28.730Z,11.70
2022-10-10T04:55:02.376Z,12.00
2022-10-10T04:57:35.697Z,12.60
2022-10-10T05:00:11.203Z,12.60
2022-10-10T05:02:45.592Z,11.90
2022-10-10T05:05:19.331Z,12.50
2022-10-10T05:07:55.482Z,13.50
2022-10-10T05:10:29.293Z,12.90
2022-10-10T05:13:02.692Z,12.10
2022-10-10T05:15:37.472Z,12.80
2022-10-10T05:18:11.179Z,12.90
2022-10-10T05:20:48.063Z,14.90
2022-10-10T05:23:21.873Z,13.10
2022-10-10T05:25:55.522Z,12.90
2022-10-10T05:28:29.251Z,12.70
2022-10-10T05:31:02.537Z,12.90
2022-10-10T05:33:36.965Z,12.00
2022-10-10T05:36:12.701Z,11.90
2022-10-10T05:38:46.342Z,11.70
2022-10-10T05:41:19.861Z,13.20
2022-10-10T05:43:53.465Z,11.40
2022-10-10T05:46:27.935Z,12.60
2022-10-10T05:49:01.008Z,11.80
2022-10-10T05:51:34.137Z,12.20
2022-10-10T05:54:07.707Z,13.10
2022-10-10T05:56:41.385Z,11.40
2022-10-10T05:59:14.947Z,12.90
2022-10-10T06:01:48.394Z,12.30
2022-10-10T06:04:21.964Z,11.70
2022-10-10T06:06:56.031Z,13.00
2022-10-10T06:09:29.643Z,11.20
2022-10-10T06:12:03.005Z,11.30
2022-10-10T06:14:36.750Z,10.60
2022-10-10T06:17:10.712Z,12.60
2022-10-10T06:19:44.069Z,10.70
2022-10-10T06:22:17.477Z,9.80
2022-10-10T06:24:53.159Z,11.60
2022-10-10T06:27:27.204Z,11.50
2022-10-10T06:30:00.915Z,11.90
2022-10-10T06:32:34.593Z,12.20
2022-10-10T06:35:09.632Z,11.20
2022-10-10T06:37:43.371Z,11.70
2022-10-10T06:40:16.846Z,11.40
2022-10-10T06:42:50.544Z,11.00
2022-10-10T06:45:26.096Z,10.60
2022-10-10T06:47:59.923Z,13.40
2022-10-10T06:50:33.290Z,11.80
2022-10-10T06:53:07.093Z,10.80
2022-10-10T06:55:47.433Z,12.50
2022-10-10T06:58:20.845Z,12.90
2022-10-10T07:00:55.964Z,11.60
2022-10-10T07:03:30.429Z,10.90
2022-10-10T07:06:05.292Z,13.20
2022-10-10T07:08:38.698Z,13.80
2022-10-10T07:11:12.925Z,15.20
2022-10-10T07:13:46.589Z,14.50
2022-10-10T07:16:20.426Z,15.50
2022-10-10T07:18:53.680Z,15.00
2022-10-10T07:21:28.106Z,13.40
2022-10-10T07:24:01.909Z,15.30
2022-10-10T07:26:38.875Z,14.80
2022-10-10T07:29:12.612Z,13.10
2022-10-10T07:31:46.589Z,13.90
2022-10-10T07:34:20.506Z,13.90
2022-10-10T07:36:54.703Z,13.50
2022-10-10T07:39:28.515Z,11.90
2022-10-10T07:42:01.945Z,12.60
2022-10-10T07:44:35.533Z,13.20
2022-10-10T07:47:09.352Z,12.30
2022-10-10T07:49:43.053Z,12.70
2022-10-10T07:52:16.152Z,12.50
2022-10-10T07:54:49.854Z,12.10
2022-10-10T07:57:23.491Z,12.10
2022-10-10T07:59:56.868Z,12.70
2022-10-10T08:02:30.330Z,12.30
2022-10-10T08:05:03.757Z,12.00
2022-10-10T08:07:37.186Z,11.50
2022-10-10T08:10:12.568Z,10.30
2022-10-10T08:12:46.049Z,9.80
2022-10-10T08:15:20.139Z,8.60
2022-10-10T08:17:53.755Z,9.90
2022-10-10T08:20:26.990Z,9.90
2022-10-10T08:23:00.527Z,10.80
2022-10-10T08:25:33.942Z,11.30
2022-10-10T08:28:07.353Z,9.70
2022-10-10T08:30:43.382Z,9.40
2022-10-10T08:33:16.769Z,9.90
2022-10-10T08:35:50.352Z,9.70
2022-10-10T08:38:23.444Z,8.70
2022-10-10T08:40:59.097Z,8.60
2022-10-10T08:43:37.012Z,8.50
2022-10-10T08:46:17.343Z,8.70
2022-10-10T08:48:53.059Z,8.90
2022-10-10T08:51:30.434Z,8.70
2022-10-10T08:54:07.265Z,8.70
2022-10-10T08:56:42.863Z,8.60
2022-10-10T08:59:27.629Z,7.70
2022-10-10T09:02:21.598Z,7.30
2022-10-10T09:04:57.724Z,6.60
2022-10-10T09:07:50.575Z,7.80
2022-10-10T09:10:33.483Z,7.20
2022-10-10T09:13:17.670Z,6.50
2022-10-10T09:15:57.159Z,5.70
2022-10-10T09:18:41.040Z,6.00
2022-10-10T09:21:19.059Z,5.80
2022-10-10T09:23:57.658Z,6.40
2022-10-10T09:29:08.648Z,6.10
2022-10-10T09:31:45.776Z,6.60
2022-10-10T09:34:23.069Z,6.10
2022-10-10T09:37:00.694Z,6.20
2022-10-10T09:39:39.146Z,6.50
2022-10-10T09:42:16.088Z,6.40
2022-10-10T09:44:49.214Z,6.30
2022-10-10T09:47:23.071Z,6.50
2022-10-10T09:49:56.870Z,6.80
2022-10-10T09:52:32.855Z,5.90
2022-10-10T09:55:17.063Z,5.70
2022-10-10T09:57:53.226Z,5.70
2022-10-10T10:00:38.603Z,5.50
2022-10-10T10:03:17.791Z,5.20
2022-10-10T10:06:01.330Z,4.60
2022-10-10T10:08:36.513Z,3.40
2022-10-10T10:11:23.950Z,4.40
2022-10-10T10:14:02.606Z,4.60
2022-10-10T10:16:39.317Z,3.80
2022-10-10T10:19:34.425Z,4.00
2022-10-10T10:22:26.545Z,3.80
2022-10-10T10:25:00.737Z,4.40
2022-10-10T10:27:34.231Z,3.90
2022-10-10T10:30:24.632Z,3.40
2022-10-10T10:33:09.195Z,4.20
2022-10-10T10:35:47.778Z,3.50
2022-10-10T10:38:35.698Z,3.40
2022-10-10T10:41:20.636Z,3.00
2022-10-10T10:44:15.788Z,3.40
2022-10-10T10:47:00.009Z,3.40
2022-10-10T10:49:45.666Z,3.60
2022-10-10T10:52:33.346Z,3.20
2022-10-10T10:55:35.882Z,3.10
2022-10-10T11:01:55.747Z,2.60
2022-10-10T11:05:17.914Z,2.70
2022-10-10T11:08:16.395Z,2.90
2022-10-10T11:11:00.579Z,2.50
2022-10-10T11:13:41.675Z,2.90
2022-10-10T11:16:46.903Z,2.50
2022-10-10T11:19:26.523Z,2.90
2022-10-10T11:22:07.138Z,3.40
2022-10-10T11:24:46.818Z,3.00
2022-10-10T11:27:26.132Z,2.80
2022-10-10T11:30:08.027Z,3.00
2022-10-10T11:32:48.227Z,2.40
2022-10-10T11:35:36.873Z,2.50
2022-10-10T11:38:18.622Z,3.90
2022-10-10T11:40:58.371Z,2.70
2022-10-10T11:43:41.406Z,2.50
2022-10-10T11:46:23.322Z,2.80
2022-10-10T11:49:04.605Z,2.80
2022-10-10T11:51:46.602Z,2.80
2022-10-10T11:54:35.572Z,2.60
2022-10-10T11:57:15.707Z,2.70
2022-10-10T11:59:51.775Z,2.80
2022-10-10T12:02:33.936Z,2.60
2022-10-10T12:05:08.185Z,2.80
2022-10-10T12:07:48.898Z,3.00
2022-10-10T12:10:29.634Z,2.50
2022-10-10T12:13:14.680Z,2.80
2022-10-10T12:15:52.156Z,3.00
2022-10-10T12:18:32.504Z,2.80
2022-10-10T12:21:11.216Z,2.50
2022-10-10T12:26:24.819Z,2.80
2022-10-10T12:29:07.370Z,2.90
2022-10-10T12:31:41.645Z,3.60
2022-10-10T12:34:38.018Z,2.90
2022-10-10T12:37:26.353Z,3.10
2022-10-10T12:40:23.127Z,2.60
2022-10-10T12:43:23.065Z,2.90
2022-10-10T12:46:21.134Z,2.70
2022-10-10T12:49:06.149Z,2.60
2022-10-10T12:51:39.835Z,3.00
2022-10-10T12:54:27.041Z,3.00
2022-10-10T12:57:18.805Z,3.30
2022-10-10T12:59:52.967Z,3.40
2022-10-10T13:02:29.771Z,3.00
2022-10-10T13:05:06.105Z,3.10
2022-10-10T13:07:41.534Z,3.10
2022-10-10T13:10:24.888Z,3.20
2022-10-10T13:13:06.760Z,3.60
2022-10-10T13:15:40.592Z,3.10
2022-10-10T13:18:14.345Z,3.40
2022-10-10T13:20:47.762Z,3.40
2022-10-10T13:23:22.616Z,3.50
2022-10-10T13:25:56.088Z,3.60
2022-10-10T13:28:29.850Z,3.40
2022-10-10T13:31:04.346Z,3.20
2022-10-10T13:33:38.596Z,3.60
2022-10-10T13:36:23.206Z,3.40
2022-10-10T13:38:56.996Z,3.40
2022-10-10T13:41:31.639Z,3.10
2022-10-10T13:44:05.010Z,3.10
2022-10-10T13:46:38.815Z,2.90
2022-10-10T13:49:25.929Z,3.00
2022-10-10T13:52:22.139Z,2.70
2022-10-10T13:54:55.714Z,2.90
2022-10-10T13:57:30.148Z,2.70
2022-10-10T14:00:08.737Z,2.70
2022-10-10T14:05:25.510Z,2.40
2022-10-10T14:07:59.873Z,2.10
2022-10-10T14:10:37.329Z,2.90
2022-10-10T14:13:19.704Z,3.00
2022-10-10T14:15:53.519Z,2.60
2022-10-10T14:18:28.341Z,2.50
2022-10-10T14:21:02.438Z,2.60
2022-10-10T14:23:36.088Z,2.20
2022-10-10T14:26:14.659Z,3.90
2022-10-10T14:28:48.632Z,3.50
2022-10-10T14:31:22.198Z,5.90
2022-10-10T14:33:56.491Z,3.00
2022-10-10T14:36:29.926Z,2.60
2022-10-10T14:39:04.229Z,2.10
2022-10-10T14:41:37.287Z,2.00
2022-10-10T14:44:10.666Z,2.50
2022-10-10T14:46:45.181Z,2.30
2022-10-10T14:49:22.316Z,2.00
2022-10-10T14:51:56.102Z,2.20
2022-10-10T14:54:29.448Z,2.70
2022-10-10T14:57:07.338Z,2.80
2022-10-10T14:59:48.126Z,2.60
2022-10-10T15:02:24.213Z,2.50
2022-10-10T15:04:58.436Z,2.40
2022-10-10T15:07:32.235Z,2.00
2022-10-10T15:13:00.584Z,2.80
2022-10-10T15:15:34.364Z,2.60
2022-10-10T15:18:25.717Z,2.70
2022-10-10T15:21:00.853Z,2.30
2022-10-10T15:23:34.601Z,2.70
2022-10-10T15:26:08.967Z,2.20
2022-10-10T15:28:42.466Z,2.40
2022-10-10T15:31:15.827Z,2.40
2022-10-10T15:33:49.572Z,3.10
2022-10-10T15:36:23.434Z,2.40
2022-10-10T15:38:58.661Z,2.40
2022-10-10T15:41:32.114Z,2.30
2022-10-10T15:44:05.747Z,3.40
2022-10-10T15:46:39.881Z,2.90
2022-10-10T15:49:14.746Z,2.70
2022-10-10T15:51:49.562Z,2.60
2022-10-10T15:54:23.321Z,3.10
2022-10-10T15:56:57.777Z,2.90
2022-10-10T15:59:31.208Z,2.80
2022-10-10T16:02:05.340Z,3.00
2022-10-10T16:04:38.944Z,4.20
2022-10-10T16:07:25.925Z,3.80
2022-10-10T16:10:03.137Z,3.90
2022-10-10T16:12:36.925Z,4.20
2022-10-10T16:15:12.302Z,3.90
2022-10-10T16:17:45.796Z,3.70
2022-10-10T16:20:19.600Z,3.70
2022-10-10T16:22:53.228Z,3.80
2022-10-10T16:25:26.997Z,3.70
2022-10-10T16:28:00.376Z,4.20
2022-10-10T16:30:33.605Z,3.80
2022-10-10T16:33:07.271Z,4.20
2022-10-10T16:35:41.127Z,4.30
2022-10-10T16:38:14.632Z,4.90
2022-10-10T16:40:51.434Z,4.50
2022-10-10T16:43:27.003Z,4.60
2022-10-10T16:46:05.399Z,4.90
2022-10-10T16:48:40.590Z,5.90
2022-10-10T16:51:16.485Z,5.40
2022-10-10T16:53:50.096Z,5.70
2022-10-10T16:56:24.350Z,4.30
2022-10-10T16:58:59.037Z,5.40
2022-10-10T17:01:32.734Z,4.30
2022-10-10T17:04:06.838Z,5.90
2022-10-10T17:06:40.614Z,6.10
2022-10-10T17:09:13.739Z,6.00
2022-10-10T17:11:51.172Z,6.30
2022-10-10T17:14:25.538Z,7.40
2022-10-10T17:17:11.600Z,5.20
2022-10-10T17:19:49.835Z,5.70
2022-10-10T17:22:23.201Z,5.50
2022-10-10T17:24:56.597Z,5.50
2022-10-10T17:27:31.152Z,6.10
2022-10-10T17:30:04.393Z,6.30
2022-10-10T17:32:37.824Z,6.20
2022-10-10T17:35:12.767Z,6.20
2022-10-10T17:37:46.411Z,6.30
2022-10-10T17:40:22.610Z,6.60
2022-10-10T17:42:56.266Z,6.60
2022-10-10T17:45:29.689Z,6.80
2022-10-10T17:48:03.280Z,7.10
2022-10-10T17:50:37.807Z,6.40
2022-10-10T17:53:11.563Z,6.80
2022-10-10T17:55:46.149Z,6.30
2022-10-10T17:58:19.897Z,7.90
2022-10-10T18:00:53.599Z,6.60
2022-10-10T18:03:27.563Z,7.10
2022-10-10T18:06:06.136Z,6.70
2022-10-10T18:08:40.175Z,7.00
2022-10-10T18:11:18.662Z,8.20
2022-10-10T18:16:26.082Z,7.90
2022-10-10T18:19:00.043Z,7.80
2022-10-10T18:21:33.440Z,8.30
2022-10-10T18:24:08.151Z,8.50
2022-10-10T18:26:42.519Z,8.60
2022-10-10T18:29:16.575Z,7.70
2022-10-10T18:31:50.741Z,8.00
2022-10-10T18:34:24.402Z,8.00
2022-10-10T18:36:58.176Z,9.00
2022-10-10T18:39:33.410Z,7.70
2022-10-10T18:42:07.198Z,8.10
2022-10-10T18:44:42.085Z,8.20
2022-10-10T18:47:15.318Z,8.60
2022-10-10T18:49:49.010Z,8.50
2022-10-10T18:52:24.267Z,7.80
2022-10-10T18:54:58.033Z,9.10
2022-10-10T18:57:31.670Z,8.90
2022-10-10T19:00:06.137Z,8.90
2022-10-10T19:02:40.176Z,8.90
2022-10-10T19:05:14.331Z,9.30
2022-10-10T19:07:48.022Z,9.20
2022-10-10T19:10:24.505Z,8.90
2022-10-10T19:12:58.733Z,9.40
2022-10-10T19:15:32.370Z,9.80
2022-10-10T19:18:06.436Z,8.80
2022-10-10T19:20:41.059Z,9.80
2022-10-10T19:23:15.484Z,9.70
2022-10-10T19:25:49.420Z,10.50
2022-10-10T19:28:22.956Z,9.30
2022-10-10T19:30:56.425Z,8.70
2022-10-10T19:33:30.778Z,12.30
2022-10-10T19:36:06.322Z,10.50
2022-10-10T19:38:42.150Z,9.70
2022-10-10T19:41:16.812Z,9.80
2022-10-10T19:43:52.407Z,10.00
2022-10-10T19:46:27.185Z,10.40
2022-10-10T19:49:01.207Z,8.90
2022-10-10T19:51:34.513Z,10.30
2022-10-10T19:54:07.778Z,10.30
2022-10-10T19:56:41.456Z,10.10
2022-10-10T19:59:14.711Z,10.00
2022-10-10T20:01:48.619Z,10.50
2022-10-10T20:04:22.135Z,10.60
2022-10-10T20:06:55.607Z,9.90
2022-10-10T20:09:29.968Z,9.80
2022-10-10T20:12:03.301Z,10.40
2022-10-10T20:14:36.708Z,11.10
2022-10-10T20:17:10.194Z,11.40
2022-10-10T20:19:45.456Z,11.20
2022-10-10T20:22:18.804Z,11.10
2022-10-10T20:24:52.421Z,10.90
2022-10-10T20:27:30.806Z,9.70
2022-10-10T20:30:04.827Z,11.30
2022-10-10T20:32:38.728Z,11.20
2022-10-10T20:35:14.469Z,10.70
2022-10-10T20:37:47.706Z,10.90
2022-10-10T20:40:21.130Z,9.90
2022-10-10T20:42:54.689Z,11.30
2022-10-10T20:45:28.572Z,11.20
2022-10-10T20:48:01.990Z,11.60
2022-10-10T20:50:37.195Z,11.80
2022-10-10T20:53:11.374Z,11.80
2022-10-10T20:55:44.901Z,11.30
2022-10-10T20:58:18.406Z,10.50
2022-10-10T21:00:51.790Z,11.40
2022-10-10T21:03:25.297Z,11.60
2022-10-10T21:06:08.977Z,12.60
2022-10-10T21:08:44.111Z,12.40
2022-10-10T21:11:19.171Z,10.90
2022-10-10T21:13:57.623Z,10.50
2022-10-10T21:16:33.226Z,11.40
2022-10-10T21:19:09.404Z,11.80
2022-10-10T21:21:42.866Z,11.50
2022-10-10T21:24:16.018Z,11.40
2022-10-10T21:26:50.735Z,10.10
2022-10-10T21:29:24.727Z,10.00
2022-10-10T21:31:58.428Z,10.30
2022-10-10T21:34:31.803Z,12.10
2022-10-10T21:37:05.546Z,10.30
2022-10-10T21:39:39.462Z,11.20
2022-10-10T21:42:12.425Z,10.60
2022-10-10T21:44:46.029Z,8.10
2022-10-10T21:47:19.367Z,10.40
2022-10-10T21:49:53.296Z,11.00
2022-10-10T21:52:27.206Z,11.10
2022-10-10T21:55:00.758Z,10.30
2022-10-10T21:57:34.435Z,10.00
2022-10-10T22:00:11.368Z,9.60
2022-10-10T22:02:45.986Z,10.80
2022-10-10T22:05:19.530Z,10.10
2022-10-10T22:07:52.927Z,8.90
2022-10-10T22:10:26.629Z,9.80
2022-10-10T22:13:00.281Z,10.90
2022-10-10T22:15:33.622Z,9.10
2022-10-10T22:18:07.065Z,9.20
2022-10-10T22:20:40.506Z,9.80
2022-10-10T22:23:14.673Z,9.30
2022-10-10T22:25:49.395Z,8.90
2022-10-10T22:28:23.525Z,9.70
2022-10-10T22:30:57.514Z,10.30
2022-10-10T22:33:31.034Z,9.20
2022-10-10T22:36:05.578Z,9.10
2022-10-10T22:38:42.342Z,9.00
2022-10-10T22:41:16.428Z,8.20
2022-10-10T22:43:50.007Z,9.10
2022-10-10T22:46:23.224Z,9.10
2022-10-10T22:48:56.450Z,8.40
2022-10-10T22:51:29.775Z,7.90
2022-10-10T22:54:03.086Z,8.20
2022-10-10T22:56:37.495Z,9.00
2022-10-10T22:59:11.054Z,8.30
2022-10-10T23:01:44.915Z,9.00
2022-10-10T23:04:18.743Z,8.60
2022-10-10T23:06:52.397Z,8.40
2022-10-10T23:09:25.923Z,8.30
2022-10-10T23:11:59.131Z,8.30
2022-10-10T23:14:32.502Z,8.80
2022-10-10T23:17:05.955Z,8.10
2022-10-10T23:19:39.747Z,8.20
2022-10-10T23:22:13.918Z,8.60
2022-10-10T23:24:47.463Z,7.70
2022-10-10T23:27:21.374Z,7.50
2022-10-10T23:29:54.888Z,9.10
2022-10-10T23:32:29.815Z,8.70
2022-10-10T23:35:03.370Z,8.50
2022-10-10T23:37:36.618Z,8.40
2022-10-10T23:40:11.876Z,7.80
2022-10-10T23:42:45.147Z,8.20
2022-10-10T23:45:18.797Z,8.30
2022-10-10T23:47:52.537Z,8.10
2022-10-10T23:50:25.677Z,8.80
2022-10-10T23:52:58.904Z,8.60
2022-10-10T23:55:32.104Z,8.50
2022-10-10T23:58:05.490Z,7.50
